createdAt,value
2022-08-26T00:02:02.219Z,29.72
2022-08-26T00:04:32.121Z,29.74
2022-08-26T00:06:59.453Z,29.93
2022-08-26T00:09:26.820Z,29.67
2022-08-26T00:11:54.554Z,30.10
2022-08-26T00:14:27.076Z,30.20
2022-08-26T00:16:57.265Z,30.14
2022-08-26T00:19:25.188Z,29.95
2022-08-26T00:21:53.577Z,30.37
2022-08-26T00:24:21.852Z,30.87
2022-08-26T00:26:50.130Z,30.89
2022-08-26T00:29:19.773Z,31.05
2022-08-26T00:31:49.403Z,31.46
2022-08-26T00:34:19.418Z,31.35
2022-08-26T00:36:49.222Z,31.19
2022-08-26T00:39:16.652Z,31.60
2022-08-26T00:41:44.036Z,31.46
2022-08-26T00:44:12.200Z,31.93
2022-08-26T00:46:46.413Z,32.27
2022-08-26T00:49:27.071Z,32.61
2022-08-26T00:51:59.067Z,32.36
2022-08-26T00:54:28.140Z,32.57
2022-08-26T00:56:59.928Z,32.34
2022-08-26T00:59:32.663Z,32.20
2022-08-26T01:02:02.760Z,32.37
2022-08-26T01:04:32.031Z,32.27
2022-08-26T01:07:00.217Z,32.98
2022-08-26T01:09:29.934Z,32.76
2022-08-26T01:11:59.879Z,33.03
2022-08-26T01:14:31.870Z,33.97
2022-08-26T01:17:02.075Z,34.41
2022-08-26T01:19:38.399Z,35.08
2022-08-26T01:22:58.901Z,35.58
2022-08-26T01:25:31.543Z,35.78
2022-08-26T01:28:00.797Z,35.73
2022-08-26T01:30:29.614Z,35.58
2022-08-26T01:32:59.954Z,36.35
2022-08-26T01:35:28.061Z,36.55
2022-08-26T01:37:57.475Z,36.67
2022-08-26T01:40:28.426Z,36.96
2022-08-26T01:42:56.170Z,36.77
2022-08-26T01:45:26.944Z,37.23
2022-08-26T01:47:56.984Z,37.26
2022-08-26T01:50:30.245Z,36.98
2022-08-26T01:53:00.556Z,37.39
2022-08-26T01:55:32.870Z,36.71
2022-08-26T01:58:04.819Z,37.25
2022-08-26T02:00:34.378Z,37.24
2022-08-26T02:03:18.354Z,37.23
2022-08-26T02:05:51.246Z,37.04
2022-08-26T02:08:24.780Z,37.39
2022-08-26T02:10:54.975Z,36.96
2022-08-26T02:13:23.654Z,37.35
2022-08-26T02:15:53.367Z,37.63
2022-08-26T02:18:21.125Z,37.84
2022-08-26T02:20:53.304Z,37.87
2022-08-26T02:23:21.250Z,37.66
2022-08-26T02:26:12.140Z,37.92
2022-08-26T02:29:02.621Z,37.79
2022-08-26T02:31:30.082Z,38.13
2022-08-26T02:34:18.999Z,37.13
2022-08-26T02:36:47.285Z,37.44
2022-08-26T02:39:19.501Z,37.76
2022-08-26T02:41:49.917Z,37.84
2022-08-26T02:44:17.617Z,37.99
2022-08-26T02:46:46.933Z,37.99
2022-08-26T02:49:16.978Z,38.04
2022-08-26T02:51:44.795Z,37.78
2022-08-26T02:54:12.960Z,38.21
2022-08-26T02:56:41.103Z,37.94
2022-08-26T02:59:09.186Z,38.32
2022-08-26T03:01:37.151Z,38.63
2022-08-26T03:04:07.054Z,38.54
2022-08-26T03:06:36.205Z,38.36
2022-08-26T03:09:05.350Z,38.87
2022-08-26T03:11:33.454Z,38.81
2022-08-26T03:14:03.381Z,39.13
2022-08-26T03:16:33.700Z,39.54
2022-08-26T03:19:02.958Z,39.12
2022-08-26T03:21:31.107Z,39.50
2022-08-26T03:23:59.328Z,39.38
2022-08-26T03:26:28.895Z,39.57
2022-08-26T03:29:16.131Z,39.96
2022-08-26T03:31:44.145Z,39.78
2022-08-26T03:34:15.314Z,39.72
2022-08-26T03:36:43.711Z,39.87
2022-08-26T03:39:12.680Z,40.08
2022-08-26T03:41:41.216Z,39.93
2022-08-26T03:44:11.407Z,40.00
2022-08-26T03:46:39.413Z,39.68
2022-08-26T03:49:07.430Z,39.85
2022-08-26T03:51:35.647Z,39.78
2022-08-26T03:54:08.324Z,39.41
2022-08-26T03:56:38.644Z,39.71
2022-08-26T03:59:07.822Z,39.40
2022-08-26T04:01:36.092Z,39.74
2022-08-26T04:04:04.183Z,39.93
2022-08-26T04:06:39.428Z,39.66
2022-08-26T04:09:10.116Z,39.79
2022-08-26T04:11:39.688Z,39.46
2022-08-26T04:14:10.391Z,39.26
2022-08-26T04:16:37.914Z,39.63
2022-08-26T04:19:06.745Z,39.61
2022-08-26T04:21:35.086Z,39.71
2022-08-26T04:24:03.510Z,39.63
2022-08-26T04:26:42.566Z,39.50
2022-08-26T04:29:17.729Z,39.64
2022-08-26T04:31:47.031Z,39.72
2022-08-26T04:34:16.201Z,39.18
2022-08-26T04:36:44.568Z,38.94
2022-08-26T04:39:14.976Z,38.23
2022-08-26T04:41:48.596Z,37.70
2022-08-26T04:44:17.394Z,37.00
2022-08-26T04:46:45.450Z,35.31
2022-08-26T04:49:14.247Z,32.98
2022-08-26T04:51:41.714Z,30.45
2022-08-26T04:54:11.990Z,29.59
2022-08-26T04:56:42.043Z,29.66
2022-08-26T04:59:16.923Z,30.62
2022-08-26T05:01:52.144Z,30.84
2022-08-26T05:04:21.014Z,31.45
2022-08-26T05:06:49.918Z,32.45
2022-08-26T05:09:21.040Z,32.96
2022-08-26T05:11:52.192Z,33.22
2022-08-26T05:14:22.383Z,34.08
2022-08-26T05:16:50.555Z,33.89
2022-08-26T05:19:19.491Z,32.64
2022-08-26T05:21:48.686Z,31.21
2022-08-26T05:24:17.810Z,30.64
2022-08-26T05:26:47.303Z,30.25
2022-08-26T05:29:16.787Z,30.02
2022-08-26T05:31:44.868Z,29.60
2022-08-26T05:34:12.823Z,29.53
2022-08-26T05:36:40.586Z,30.11
2022-08-26T05:39:10.539Z,30.67
2022-08-26T05:41:41.129Z,31.37
2022-08-26T05:44:14.010Z,31.69
2022-08-26T05:46:44.115Z,31.83
2022-08-26T05:49:14.086Z,31.67
2022-08-26T05:51:45.272Z,31.95
2022-08-26T05:54:13.973Z,32.02
2022-08-26T05:56:43.423Z,31.34
2022-08-26T05:59:15.286Z,31.51
2022-08-26T06:01:43.680Z,31.11
2022-08-26T06:04:12.509Z,31.83
2022-08-26T06:06:42.691Z,31.26
2022-08-26T06:09:11.443Z,31.79
2022-08-26T06:11:40.297Z,30.78
2022-08-26T06:14:08.591Z,30.49
2022-08-26T06:16:41.196Z,30.65
2022-08-26T06:19:11.991Z,30.40
2022-08-26T06:21:41.694Z,30.36
2022-08-26T06:24:30.196Z,30.41
2022-08-26T06:27:05.040Z,30.16
2022-08-26T06:29:36.602Z,30.55
2022-08-26T06:32:05.855Z,29.38
2022-08-26T06:34:34.332Z,29.05
2022-08-26T06:37:03.364Z,28.25
2022-08-26T06:39:32.931Z,28.41
2022-08-26T06:42:02.656Z,28.93
2022-08-26T06:44:30.793Z,29.63
2022-08-26T06:46:59.959Z,30.03
2022-08-26T06:49:27.978Z,31.28
2022-08-26T06:52:02.185Z,31.14
2022-08-26T06:54:31.898Z,31.57
2022-08-26T06:57:00.433Z,31.42
2022-08-26T06:59:28.568Z,31.39
2022-08-26T07:02:01.564Z,32.26
2022-08-26T07:04:30.686Z,31.31
2022-08-26T07:07:00.403Z,31.66
2022-08-26T07:09:30.457Z,31.41
2022-08-26T07:11:58.261Z,31.37
2022-08-26T07:14:27.678Z,31.11
2022-08-26T07:16:56.110Z,30.56
2022-08-26T07:19:30.624Z,29.92
2022-08-26T07:22:03.283Z,28.58
2022-08-26T07:24:36.923Z,27.58
2022-08-26T07:27:07.187Z,27.48
2022-08-26T07:29:37.045Z,26.75
2022-08-26T07:32:05.380Z,27.54
2022-08-26T07:34:33.447Z,27.49
2022-08-26T07:37:01.100Z,27.13
2022-08-26T07:39:31.290Z,27.01
2022-08-26T07:42:01.586Z,27.13
2022-08-26T07:44:38.561Z,26.53
2022-08-26T07:47:19.365Z,26.23
2022-08-26T07:49:56.112Z,25.80
2022-08-26T07:52:27.041Z,25.28
2022-08-26T07:54:58.697Z,24.61
2022-08-26T07:57:30.643Z,25.22
2022-08-26T07:59:58.541Z,24.42
2022-08-26T08:02:29.607Z,24.41
2022-08-26T08:04:58.156Z,24.65
2022-08-26T08:07:44.232Z,24.59
2022-08-26T08:10:19.208Z,24.51
2022-08-26T08:12:50.337Z,25.40
2022-08-26T08:15:20.673Z,25.75
2022-08-26T08:17:51.566Z,25.56
2022-08-26T08:20:19.685Z,25.01
2022-08-26T08:22:47.727Z,24.99
2022-08-26T08:25:15.279Z,25.23
2022-08-26T08:27:48.248Z,25.07
2022-08-26T08:30:20.796Z,25.48
2022-08-26T08:32:51.108Z,25.46
2022-08-26T08:35:22.439Z,25.28
2022-08-26T08:37:54.966Z,25.63
2022-08-26T08:40:26.126Z,25.00
2022-08-26T08:43:05.248Z,25.13
2022-08-26T08:45:36.590Z,25.30
2022-08-26T08:48:09.680Z,24.95
2022-08-26T08:50:46.681Z,24.80
2022-08-26T08:53:44.864Z,25.03
2022-08-26T08:56:25.076Z,24.90
2022-08-26T08:58:59.594Z,24.35
2022-08-26T09:01:42.395Z,24.69
2022-08-26T09:04:17.210Z,25.09
2022-08-26T09:06:49.020Z,24.42
2022-08-26T09:09:23.437Z,24.34
2022-08-26T09:11:51.136Z,24.02
2022-08-26T09:14:18.835Z,24.55
2022-08-26T09:17:05.206Z,24.75
2022-08-26T09:19:43.552Z,24.63
2022-08-26T09:22:36.701Z,24.63
2022-08-26T09:25:15.700Z,24.70
2022-08-26T09:27:50.473Z,24.70
2022-08-26T09:30:35.432Z,24.59
2022-08-26T09:33:10.863Z,24.37
2022-08-26T09:35:41.960Z,24.52
2022-08-26T09:38:33.785Z,24.60
2022-08-26T09:41:07.282Z,24.25
2022-08-26T09:43:36.383Z,24.77
2022-08-26T09:46:33.292Z,24.19
2022-08-26T09:49:42.685Z,24.33
2022-08-26T09:52:23.771Z,24.57
2022-08-26T09:55:12.483Z,24.79
2022-08-26T10:00:57.559Z,24.68
2022-08-26T10:03:35.455Z,25.13
2022-08-26T10:06:08.338Z,25.21
2022-08-26T10:08:44.083Z,25.33
2022-08-26T10:11:20.112Z,25.56
2022-08-26T10:13:59.931Z,25.66
2022-08-26T10:16:35.611Z,25.30
2022-08-26T10:19:13.207Z,25.70
2022-08-26T10:22:00.842Z,25.65
2022-08-26T10:24:44.816Z,26.24
2022-08-26T10:27:26.763Z,26.39
2022-08-26T10:30:00.720Z,26.76
2022-08-26T10:35:27.182Z,26.48
2022-08-26T10:38:27.329Z,26.78
2022-08-26T10:41:16.788Z,27.35
2022-08-26T10:44:00.176Z,27.50
2022-08-26T10:46:39.816Z,27.53
2022-08-26T10:49:15.190Z,28.96
2022-08-26T10:51:54.681Z,31.45
2022-08-26T10:54:42.228Z,31.68
2022-08-26T10:57:21.429Z,31.53
2022-08-26T11:00:29.574Z,32.02
2022-08-26T11:03:31.767Z,32.03
2022-08-26T11:06:20.018Z,31.76
2022-08-26T11:08:47.724Z,31.63
2022-08-26T11:11:39.709Z,31.67
2022-08-26T11:14:28.541Z,30.91
2022-08-26T11:16:58.977Z,30.69
2022-08-26T11:19:57.090Z,30.11
2022-08-26T11:22:34.965Z,29.87
2022-08-26T11:25:05.227Z,29.57
2022-08-26T11:27:37.718Z,29.74
2022-08-26T11:30:18.658Z,29.76
2022-08-26T11:32:55.675Z,29.62
2022-08-26T11:35:24.303Z,29.41
2022-08-26T11:38:19.844Z,29.34
2022-08-26T11:41:03.959Z,29.13
2022-08-26T11:43:34.029Z,29.09
2022-08-26T11:46:09.073Z,29.17
2022-08-26T11:48:39.554Z,29.20
2022-08-26T11:51:08.747Z,29.61
2022-08-26T11:53:41.318Z,29.58
2022-08-26T11:56:13.506Z,29.52
2022-08-26T11:58:45.190Z,29.49
2022-08-26T12:01:31.450Z,29.63
2022-08-26T12:04:00.110Z,30.05
2022-08-26T12:06:31.476Z,29.71
2022-08-26T12:09:08.100Z,29.83
2022-08-26T12:11:37.457Z,30.14
2022-08-26T12:14:21.346Z,30.33
2022-08-26T12:16:48.884Z,30.50
2022-08-26T12:19:32.651Z,30.21
2022-08-26T12:22:25.660Z,30.22
2022-08-26T12:24:58.864Z,29.95
2022-08-26T12:27:35.976Z,29.70
2022-08-26T12:30:20.147Z,29.93
2022-08-26T12:32:57.336Z,29.13
2022-08-26T12:35:29.427Z,29.35
2022-08-26T12:37:57.705Z,29.78
2022-08-26T12:40:30.853Z,29.86
2022-08-26T12:43:00.896Z,30.21
2022-08-26T12:45:34.811Z,29.65
2022-08-26T12:48:31.689Z,30.01
2022-08-26T12:51:00.302Z,30.56
2022-08-26T12:53:32.738Z,30.44
2022-08-26T12:56:04.654Z,30.83
2022-08-26T12:58:35.887Z,31.13
2022-08-26T13:01:09.369Z,31.41
2022-08-26T13:03:44.618Z,31.64
2022-08-26T13:06:23.598Z,31.77
2022-08-26T13:08:55.325Z,31.80
2022-08-26T13:11:26.164Z,31.64
2022-08-26T13:13:59.035Z,31.99
2022-08-26T13:16:27.307Z,32.46
2022-08-26T13:18:59.667Z,32.34
2022-08-26T13:21:37.301Z,32.31
2022-08-26T13:24:13.057Z,32.21
2022-08-26T13:26:43.581Z,32.16
2022-08-26T13:29:12.588Z,31.88
2022-08-26T13:31:44.161Z,32.01
2022-08-26T13:34:19.350Z,32.02
2022-08-26T13:36:48.914Z,32.27
2022-08-26T13:39:17.561Z,31.92
2022-08-26T13:41:45.164Z,31.96
2022-08-26T13:44:20.243Z,32.07
2022-08-26T13:46:47.928Z,32.28
2022-08-26T13:49:15.936Z,32.02
2022-08-26T13:51:43.652Z,32.10
2022-08-26T13:54:11.346Z,32.41
2022-08-26T13:56:41.599Z,32.20
2022-08-26T13:59:09.026Z,32.63
2022-08-26T14:01:37.326Z,32.41
2022-08-26T14:04:04.749Z,32.41
2022-08-26T14:06:34.644Z,31.87
2022-08-26T14:09:02.263Z,31.83
2022-08-26T14:11:41.151Z,31.21
2022-08-26T14:14:19.841Z,31.53
2022-08-26T14:16:51.282Z,31.47
2022-08-26T14:19:29.685Z,31.33
2022-08-26T14:21:57.242Z,32.18
2022-08-26T14:24:26.283Z,31.45
2022-08-26T14:26:53.955Z,30.62
2022-08-26T14:29:22.440Z,30.03
2022-08-26T14:31:50.095Z,30.25
2022-08-26T14:34:17.775Z,30.58
2022-08-26T14:36:46.666Z,30.83
2022-08-26T14:39:14.947Z,31.29
2022-08-26T14:41:54.426Z,31.57
2022-08-26T14:44:26.557Z,31.39
2022-08-26T14:46:54.735Z,31.39
2022-08-26T14:49:23.887Z,31.95
2022-08-26T14:51:51.294Z,32.22
2022-08-26T14:54:19.475Z,32.52
2022-08-26T14:56:53.974Z,32.64
2022-08-26T14:59:25.568Z,33.63
2022-08-26T15:01:54.528Z,34.12
2022-08-26T15:04:23.193Z,34.68
2022-08-26T15:06:53.866Z,34.29
2022-08-26T15:09:22.534Z,34.64
2022-08-26T15:11:51.539Z,34.77
2022-08-26T15:14:20.138Z,34.72
2022-08-26T15:16:50.657Z,34.93
2022-08-26T15:19:19.141Z,35.53
2022-08-26T15:21:47.612Z,35.99
2022-08-26T15:24:18.887Z,36.01
2022-08-26T15:26:49.557Z,35.88
2022-08-26T15:29:17.553Z,35.36
2022-08-26T15:31:45.142Z,35.72
2022-08-26T15:34:16.751Z,36.02
2022-08-26T15:36:46.456Z,36.38
2022-08-26T15:39:16.053Z,36.13
2022-08-26T15:41:44.857Z,35.70
2022-08-26T15:44:14.085Z,36.00
2022-08-26T15:46:45.680Z,36.41
2022-08-26T15:49:18.231Z,36.89
2022-08-26T15:51:48.214Z,37.00
2022-08-26T15:54:19.612Z,37.10
2022-08-26T15:56:50.630Z,37.58
2022-08-26T15:59:19.468Z,37.57
2022-08-26T16:01:47.123Z,37.68
2022-08-26T16:04:15.167Z,38.21
2022-08-26T16:06:46.694Z,38.25
2022-08-26T16:09:14.105Z,38.64
2022-08-26T16:11:41.810Z,39.18
2022-08-26T16:14:09.555Z,39.78
2022-08-26T16:16:44.381Z,40.10
2022-08-26T16:19:14.309Z,40.85
2022-08-26T16:21:42.139Z,41.43
2022-08-26T16:24:09.971Z,41.39
2022-08-26T16:26:38.923Z,41.88
2022-08-26T16:29:12.426Z,42.28
2022-08-26T16:31:40.531Z,42.16
2022-08-26T16:34:09.068Z,42.14
2022-08-26T16:36:38.660Z,42.10
2022-08-26T16:39:07.945Z,42.12
2022-08-26T16:41:36.157Z,41.57
2022-08-26T16:44:07.919Z,41.21
2022-08-26T16:46:36.257Z,40.42
2022-08-26T16:49:04.813Z,40.54
2022-08-26T16:51:37.979Z,40.27
2022-08-26T16:54:09.562Z,39.94
2022-08-26T16:56:37.754Z,39.60
2022-08-26T16:59:07.218Z,39.17
2022-08-26T17:01:35.562Z,38.92
2022-08-26T17:04:03.362Z,38.74
2022-08-26T17:06:31.721Z,38.88
2022-08-26T17:08:59.337Z,38.91
2022-08-26T17:11:26.842Z,38.79
2022-08-26T17:13:54.387Z,38.66
2022-08-26T17:16:26.431Z,38.82
2022-08-26T17:18:58.684Z,39.34
2022-08-26T17:21:28.074Z,39.31
2022-08-26T17:23:57.891Z,39.58
2022-08-26T17:26:26.688Z,40.18
2022-08-26T17:28:54.529Z,40.05
2022-08-26T17:31:23.545Z,39.75
2022-08-26T17:33:53.756Z,40.22
2022-08-26T17:36:27.885Z,40.44
2022-08-26T17:38:57.040Z,40.44
2022-08-26T17:41:25.187Z,41.32
2022-08-26T17:43:52.592Z,41.58
2022-08-26T17:46:23.189Z,41.80
2022-08-26T17:48:50.933Z,42.00
2022-08-26T17:51:20.361Z,42.12
2022-08-26T17:53:50.714Z,42.81
2022-08-26T17:56:24.063Z,43.19
2022-08-26T17:58:54.277Z,43.53
2022-08-26T18:01:26.426Z,43.57
2022-08-26T18:03:59.685Z,43.39
2022-08-26T18:06:30.743Z,43.59
2022-08-26T18:08:58.739Z,43.39
2022-08-26T18:11:27.198Z,43.24
2022-08-26T18:13:54.883Z,43.56
2022-08-26T18:16:22.352Z,44.29
2022-08-26T18:18:53.507Z,43.78
2022-08-26T18:21:24.066Z,43.95
2022-08-26T18:23:52.360Z,43.99
2022-08-26T18:26:27.589Z,43.65
2022-08-26T18:28:55.741Z,43.86
2022-08-26T18:31:23.210Z,43.79
2022-08-26T18:33:50.700Z,42.95
2022-08-26T18:36:21.814Z,42.53
2022-08-26T18:38:50.847Z,41.97
2022-08-26T18:41:21.049Z,42.42
2022-08-26T18:43:50.614Z,42.80
2022-08-26T18:46:19.223Z,43.59
2022-08-26T18:48:51.065Z,43.30
2022-08-26T18:51:21.502Z,43.40
2022-08-26T18:53:49.934Z,43.54
2022-08-26T18:56:18.751Z,43.97
2022-08-26T18:58:50.110Z,44.04
2022-08-26T19:01:18.411Z,44.76
2022-08-26T19:03:49.234Z,44.94
2022-08-26T19:06:19.470Z,45.73
2022-08-26T19:08:49.972Z,46.32
2022-08-26T19:11:32.122Z,47.50
2022-08-26T19:14:02.313Z,47.43
2022-08-26T19:16:30.886Z,49.55
2022-08-26T19:19:00.656Z,51.86
2022-08-26T19:21:31.858Z,54.43
2022-08-26T19:24:02.635Z,55.88
2022-08-26T19:26:36.402Z,56.31
2022-08-26T19:29:04.137Z,56.98
2022-08-26T19:31:31.718Z,58.71
2022-08-26T19:33:59.645Z,58.41
2022-08-26T19:36:28.477Z,58.51
2022-08-26T19:38:56.849Z,58.64
2022-08-26T19:41:36.945Z,58.82
2022-08-26T19:44:11.770Z,58.24
2022-08-26T19:46:40.041Z,58.50
2022-08-26T19:49:10.581Z,58.32
2022-08-26T19:51:40.695Z,58.95
2022-08-26T19:54:09.734Z,59.04
2022-08-26T19:56:41.425Z,56.98
2022-08-26T19:59:09.060Z,56.93
2022-08-26T20:01:37.082Z,54.96
2022-08-26T20:04:04.965Z,55.55
2022-08-26T20:06:33.006Z,55.78
2022-08-26T20:09:03.739Z,55.26
2022-08-26T20:11:32.159Z,56.07
2022-08-26T20:13:59.883Z,56.22
2022-08-26T20:16:27.685Z,56.57
2022-08-26T20:19:14.041Z,56.82
2022-08-26T20:21:42.585Z,57.26
2022-08-26T20:24:14.021Z,56.57
2022-08-26T20:26:43.328Z,56.05
2022-08-26T20:29:12.976Z,55.50
2022-08-26T20:31:41.107Z,55.48
2022-08-26T20:34:08.744Z,55.92
2022-08-26T20:36:38.620Z,55.67
2022-08-26T20:39:06.454Z,56.30
2022-08-26T20:41:33.971Z,56.70
2022-08-26T20:44:02.176Z,55.46
2022-08-26T20:46:29.803Z,55.29
2022-08-26T20:48:58.230Z,55.13
2022-08-26T20:51:27.303Z,56.04
2022-08-26T20:53:54.924Z,56.12
2022-08-26T20:56:25.944Z,56.11
2022-08-26T20:58:55.934Z,54.90
2022-08-26T21:01:25.890Z,55.44
2022-08-26T21:03:54.266Z,54.21
2022-08-26T21:06:22.045Z,54.43
2022-08-26T21:08:50.826Z,54.81
2022-08-26T21:11:19.215Z,54.13
2022-08-26T21:16:36.769Z,53.84
2022-08-26T21:19:05.899Z,54.28
2022-08-26T21:21:33.843Z,53.56
2022-08-26T21:24:01.515Z,53.74
2022-08-26T21:26:29.374Z,54.21
2022-08-26T21:28:57.150Z,52.25
2022-08-26T21:31:25.532Z,52.09
2022-08-26T21:33:53.466Z,51.16
2022-08-26T21:36:21.194Z,50.41
2022-08-26T21:38:48.692Z,49.19
2022-08-26T21:41:19.520Z,48.66
2022-08-26T21:43:48.272Z,48.52
2022-08-26T21:46:22.038Z,47.25
2022-08-26T21:48:56.379Z,46.84
2022-08-26T21:51:26.135Z,46.92
2022-08-26T21:53:55.707Z,46.39
2022-08-26T21:56:26.343Z,45.87
2022-08-26T21:58:55.108Z,45.60
2022-08-26T22:01:23.715Z,44.95
2022-08-26T22:03:52.750Z,44.75
2022-08-26T22:06:22.707Z,44.09
2022-08-26T22:08:52.135Z,43.63
2022-08-26T22:11:19.904Z,43.59
2022-08-26T22:13:48.712Z,42.95
2022-08-26T22:16:16.381Z,42.99
2022-08-26T22:18:45.970Z,42.53
2022-08-26T22:21:20.773Z,42.19
2022-08-26T22:23:48.226Z,41.72
2022-08-26T22:26:25.502Z,39.03
2022-08-26T22:28:58.646Z,39.49
2022-08-26T22:31:37.647Z,39.76
2022-08-26T22:34:08.972Z,39.79
2022-08-26T22:36:43.104Z,39.03
2022-08-26T22:39:17.244Z,37.34
2022-08-26T22:41:45.386Z,38.33
2022-08-26T22:44:12.850Z,38.55
2022-08-26T22:46:42.294Z,34.66
2022-08-26T22:49:11.404Z,34.04
2022-08-26T22:51:39.106Z,34.88
2022-08-26T22:54:06.587Z,36.13
2022-08-26T22:56:34.545Z,34.47
2022-08-26T22:59:02.250Z,34.74
2022-08-26T23:01:30.000Z,34.57
2022-08-26T23:06:25.111Z,35.92
2022-08-26T23:08:53.245Z,34.55
2022-08-26T23:11:25.257Z,33.88
2022-08-26T23:13:52.708Z,33.21
2022-08-26T23:16:20.255Z,33.09
2022-08-26T23:18:47.755Z,33.80
2022-08-26T23:21:15.289Z,34.50
2022-08-26T23:23:42.763Z,32.91
2022-08-26T23:26:16.723Z,33.36
2022-08-26T23:28:45.033Z,32.70
2022-08-26T23:31:12.404Z,33.11
2022-08-26T23:33:59.064Z,33.44
2022-08-26T23:36:26.698Z,32.41
2022-08-26T23:38:54.408Z,32.73
2022-08-26T23:41:22.905Z,32.94
2022-08-26T23:43:51.804Z,32.84
2022-08-26T23:46:19.929Z,33.41
2022-08-26T23:48:47.323Z,34.47
2022-08-26T23:51:33.356Z,34.06
2022-08-26T23:54:00.940Z,31.39
2022-08-26T23:56:29.243Z,31.99
2022-08-26T23:58:56.878Z,31.38
